createdAt,value
2019-03-11T00:00:34.722Z,90.50
2019-03-11T00:03:03.153Z,90.60
2019-03-11T00:05:31.578Z,90.80
2019-03-11T00:08:00.027Z,90.90
2019-03-11T00:10:28.460Z,90.90
2019-03-11T00:12:57.193Z,90.70
2019-03-11T00:15:25.615Z,90.70
2019-03-11T00:17:54.101Z,91.00
2019-03-11T00:20:22.532Z,91.00
2019-03-11T00:22:50.992Z,90.80
2019-03-11T00:25:19.422Z,90.80
2019-03-11T00:27:48.178Z,90.50
2019-03-11T00:30:16.678Z,90.30
2019-03-11T00:32:45.122Z,90.20
2019-03-11T00:35:13.549Z,90.40
2019-03-11T00:37:42.058Z,90.70
2019-03-11T00:40:13.046Z,90.60
2019-03-11T00:42:41.566Z,90.80
2019-03-11T00:45:12.805Z,90.70
2019-03-11T00:47:41.254Z,90.50
2019-03-11T00:50:11.475Z,90.60
2019-03-11T00:52:39.974Z,90.40
2019-03-11T00:55:13.501Z,89.00
2019-03-11T00:57:41.939Z,89.40
2019-03-11T01:00:33.764Z,89.10
2019-03-11T01:03:02.267Z,87.20
2019-03-11T01:05:30.695Z,87.10
2019-03-11T01:07:59.135Z,86.80
2019-03-11T01:10:27.561Z,86.40
2019-03-11T01:12:56.279Z,86.40
2019-03-11T01:15:24.707Z,87.20
2019-03-11T01:17:53.209Z,86.10
2019-03-11T01:20:21.718Z,86.50
2019-03-11T01:22:50.145Z,85.90
2019-03-11T01:25:18.589Z,84.90
2019-03-11T01:27:47.089Z,84.70
2019-03-11T01:30:16.596Z,83.90
2019-03-11T01:32:45.116Z,83.80
2019-03-11T01:35:13.862Z,81.20
2019-03-11T01:37:42.634Z,82.70
2019-03-11T01:40:16.637Z,83.70
2019-03-11T01:42:45.064Z,83.20
2019-03-11T01:45:15.705Z,83.50
2019-03-11T01:47:44.129Z,83.70
2019-03-11T01:50:13.918Z,80.80
2019-03-11T01:52:42.413Z,79.60
2019-03-11T01:55:12.499Z,79.10
2019-03-11T01:57:40.930Z,81.00
2019-03-11T02:00:18.941Z,81.40
2019-03-11T02:02:47.363Z,82.30
2019-03-11T02:05:16.210Z,82.20
2019-03-11T02:07:44.643Z,83.90
2019-03-11T02:10:15.726Z,83.60
2019-03-11T02:12:44.227Z,83.90
2019-03-11T02:15:15.379Z,82.80
2019-03-11T02:17:43.811Z,78.70
2019-03-11T02:20:14.790Z,75.70
2019-03-11T02:22:43.471Z,76.10
2019-03-11T02:25:12.850Z,76.70
2019-03-11T02:27:41.277Z,74.80
2019-03-11T02:30:12.923Z,75.40
2019-03-11T02:32:41.360Z,76.40
2019-03-11T02:35:10.130Z,77.60
2019-03-11T02:37:38.640Z,77.40
2019-03-11T02:40:12.418Z,76.20
2019-03-11T02:42:40.848Z,75.80
2019-03-11T02:45:10.463Z,76.10
2019-03-11T02:47:38.961Z,76.70
2019-03-11T02:50:11.229Z,74.70
2019-03-11T02:52:39.695Z,71.20
2019-03-11T02:55:09.012Z,71.70
2019-03-11T02:57:37.473Z,70.80
2019-03-11T03:00:12.874Z,70.80
2019-03-11T03:02:42.946Z,70.40
2019-03-11T03:05:13.122Z,72.30
2019-03-11T03:07:41.559Z,73.30
2019-03-11T03:10:10.566Z,73.60
2019-03-11T03:12:39.068Z,73.70
2019-03-11T03:15:10.145Z,73.90
2019-03-11T03:17:38.563Z,74.60
2019-03-11T03:20:12.463Z,75.70
2019-03-11T03:22:40.899Z,76.20
2019-03-11T03:25:11.671Z,76.80
2019-03-11T03:27:40.139Z,77.10
2019-03-11T03:30:11.746Z,77.10
2019-03-11T03:32:40.268Z,77.40
2019-03-11T03:35:08.842Z,77.30
2019-03-11T03:37:37.351Z,78.70
2019-03-11T03:40:11.125Z,79.10
2019-03-11T03:42:39.958Z,78.20
2019-03-11T03:45:28.820Z,78.00
2019-03-11T03:47:57.649Z,78.40
2019-03-11T03:50:28.584Z,79.30
2019-03-11T03:52:57.100Z,78.50
2019-03-11T03:55:25.534Z,78.30
2019-03-11T03:57:54.282Z,78.10
2019-03-11T04:00:23.332Z,78.30
2019-03-11T04:02:51.862Z,78.40
2019-03-11T04:05:20.287Z,79.80
2019-03-11T04:07:48.754Z,78.80
2019-03-11T04:10:19.385Z,79.70
2019-03-11T04:12:47.961Z,80.40
2019-03-11T04:15:16.563Z,80.10
2019-03-11T04:17:45.335Z,80.40
2019-03-11T04:20:19.805Z,81.80
2019-03-11T04:22:48.302Z,82.20
2019-03-11T04:25:16.839Z,82.90
2019-03-11T04:27:45.519Z,82.40
2019-03-11T04:30:19.091Z,82.80
2019-03-11T04:32:47.544Z,83.50
2019-03-11T04:35:16.064Z,82.80
2019-03-11T04:37:44.506Z,84.00
2019-03-11T04:40:14.471Z,82.80
2019-03-11T04:42:43.258Z,82.80
2019-03-11T04:45:18.175Z,82.60
2019-03-11T04:47:46.741Z,82.50
2019-03-11T04:50:17.317Z,82.80
2019-03-11T04:52:45.809Z,81.90
2019-03-11T04:55:15.547Z,81.80
2019-03-11T04:57:56.612Z,81.50
2019-03-11T05:00:29.373Z,81.40
2019-03-11T05:02:57.830Z,81.90
2019-03-11T05:05:26.308Z,82.30
2019-03-11T05:07:54.769Z,82.50
2019-03-11T05:10:23.244Z,82.10
2019-03-11T05:12:51.672Z,81.90
2019-03-11T05:15:20.115Z,81.00
2019-03-11T05:17:48.988Z,81.50
2019-03-11T05:20:18.006Z,81.10
2019-03-11T05:22:46.520Z,81.30
2019-03-11T05:25:15.502Z,80.30
2019-03-11T05:27:43.945Z,81.80
2019-03-11T05:30:25.883Z,81.50
2019-03-11T05:32:54.429Z,82.10
2019-03-11T05:35:22.898Z,82.30
2019-03-11T05:37:51.356Z,82.50
2019-03-11T05:40:21.046Z,83.80
2019-03-11T05:42:49.474Z,83.50
2019-03-11T05:45:18.886Z,83.30
2019-03-11T05:47:47.414Z,83.50
2019-03-11T05:50:16.967Z,83.60
2019-03-11T05:52:45.673Z,83.80
2019-03-11T05:55:14.653Z,84.20
2019-03-11T05:57:43.109Z,83.90
2019-03-11T06:00:18.538Z,84.60
2019-03-11T06:02:47.062Z,83.40
2019-03-11T06:05:15.530Z,83.30
2019-03-11T06:07:44.047Z,83.80
2019-03-11T06:10:14.242Z,83.80
2019-03-11T06:12:42.677Z,83.80
2019-03-11T06:15:13.257Z,84.10
2019-03-11T06:17:41.761Z,83.90
2019-03-11T06:20:35.775Z,84.10
2019-03-11T06:23:05.856Z,83.80
2019-03-11T06:25:34.276Z,84.70
2019-03-11T06:28:02.975Z,84.80
2019-03-11T06:30:31.513Z,84.80
2019-03-11T06:32:59.997Z,84.80
2019-03-11T06:35:28.433Z,85.20
2019-03-11T06:37:56.861Z,83.60
2019-03-11T06:40:25.312Z,83.70
2019-03-11T06:42:53.733Z,83.10
2019-03-11T06:45:22.165Z,82.60
2019-03-11T06:47:50.584Z,82.40
2019-03-11T06:50:19.021Z,82.50
2019-03-11T06:52:47.440Z,82.60
2019-03-11T06:55:15.907Z,82.50
2019-03-11T06:57:44.364Z,82.10
2019-03-11T07:00:22.314Z,81.60
2019-03-11T07:02:50.768Z,79.60
2019-03-11T07:05:20.974Z,76.20
2019-03-11T07:07:49.397Z,77.40
2019-03-11T07:10:18.164Z,74.90
2019-03-11T07:12:46.611Z,74.90
2019-03-11T07:15:16.078Z,73.70
2019-03-11T07:17:45.060Z,72.80
2019-03-11T07:20:18.255Z,71.80
2019-03-11T07:22:47.118Z,71.60
2019-03-11T07:25:15.641Z,73.60
2019-03-11T07:27:44.178Z,72.30
2019-03-11T07:30:19.413Z,71.80
2019-03-11T07:32:47.897Z,68.70
2019-03-11T07:35:16.316Z,68.40
2019-03-11T07:37:44.753Z,67.50
2019-03-11T07:40:28.514Z,63.20
2019-03-11T07:42:47.876Z,61.80
2019-03-11T07:45:17.157Z,61.50
2019-03-11T07:47:45.870Z,60.40
2019-03-11T07:50:16.157Z,58.90
2019-03-11T07:52:44.864Z,59.50
2019-03-11T07:55:13.938Z,58.60
2019-03-11T07:57:42.427Z,57.10
2019-03-11T08:00:16.773Z,57.10
2019-03-11T08:02:45.282Z,56.30
2019-03-11T08:05:33.402Z,57.10
2019-03-11T08:08:01.956Z,57.00
2019-03-11T08:10:30.581Z,56.80
2019-03-11T08:12:59.041Z,58.60
2019-03-11T08:15:27.462Z,58.30
2019-03-11T08:17:55.913Z,58.10
2019-03-11T08:20:24.328Z,56.90
2019-03-11T08:22:52.832Z,55.70
2019-03-11T08:25:21.275Z,57.20
2019-03-11T08:27:49.693Z,55.00
2019-03-11T08:30:22.754Z,56.30
2019-03-11T08:32:51.185Z,56.20
2019-03-11T08:35:19.652Z,58.20
2019-03-11T08:37:48.077Z,56.30
2019-03-11T08:40:18.811Z,56.50
2019-03-11T08:42:47.801Z,60.90
2019-03-11T08:45:17.518Z,74.90
2019-03-11T08:47:46.072Z,81.60
2019-03-11T08:50:15.705Z,84.80
2019-03-11T08:53:04.937Z,86.30
2019-03-11T08:55:33.389Z,87.00
2019-03-11T08:58:01.840Z,88.10
2019-03-11T09:00:30.266Z,88.30
2019-03-11T09:02:58.704Z,88.70
2019-03-11T09:05:27.137Z,88.60
2019-03-11T09:07:55.569Z,89.40
2019-03-11T09:10:24.089Z,89.50
2019-03-11T09:12:52.517Z,89.70
2019-03-11T09:15:21.572Z,89.50
2019-03-11T09:17:50.017Z,89.90
2019-03-11T09:20:18.979Z,90.00
2019-03-11T09:22:47.413Z,90.30
2019-03-11T09:25:20.465Z,90.60
2019-03-11T09:27:50.803Z,90.30
2019-03-11T09:30:20.694Z,90.40
2019-03-11T09:32:49.263Z,90.60
2019-03-11T09:35:17.826Z,90.90
2019-03-11T09:37:46.562Z,91.10
2019-03-11T09:40:19.390Z,90.30
2019-03-11T09:42:47.833Z,90.70
2019-03-11T09:45:39.774Z,90.80
2019-03-11T09:48:07.432Z,91.20
2019-03-11T09:50:35.853Z,91.30
2019-03-11T09:53:04.586Z,90.80
2019-03-11T09:55:33.009Z,91.00
2019-03-11T09:58:01.451Z,91.00
2019-03-11T10:00:32.185Z,91.00
2019-03-11T10:03:00.620Z,91.80
2019-03-11T10:05:29.053Z,92.00
2019-03-11T10:07:57.635Z,92.20
2019-03-11T10:10:28.032Z,92.60
2019-03-11T10:12:56.475Z,92.30
2019-03-11T10:15:24.960Z,92.70
2019-03-11T10:17:53.723Z,92.40
2019-03-11T10:20:22.286Z,92.40
2019-03-11T10:22:51.584Z,91.70
2019-03-11T10:25:20.940Z,91.00
2019-03-11T10:27:49.398Z,91.20
2019-03-11T10:30:24.637Z,91.20
2019-03-11T10:32:53.395Z,90.50
2019-03-11T10:35:37.137Z,90.90
2019-03-11T10:37:52.040Z,91.20
2019-03-11T10:40:24.572Z,90.40
2019-03-11T10:42:53.101Z,90.60
2019-03-11T10:45:30.463Z,90.00
2019-03-11T10:47:52.186Z,89.70
2019-03-11T10:50:21.146Z,89.00
2019-03-11T10:52:50.075Z,88.70
2019-03-11T10:55:23.142Z,87.90
2019-03-11T10:57:51.761Z,87.60
2019-03-11T11:00:29.900Z,86.90
2019-03-11T11:02:58.746Z,86.60
2019-03-11T11:05:27.300Z,86.70
2019-03-11T11:07:55.917Z,87.40
2019-03-11T11:10:24.336Z,86.30
2019-03-11T11:12:52.963Z,86.80
2019-03-11T11:15:29.241Z,88.50
2019-03-11T11:17:57.697Z,87.90
2019-03-11T11:20:26.184Z,89.60
2019-03-11T11:22:55.258Z,90.00
2019-03-11T11:25:25.692Z,90.00
2019-03-11T11:27:54.238Z,90.10
2019-03-11T11:30:24.831Z,90.20
2019-03-11T11:32:53.609Z,90.40
2019-03-11T11:35:22.180Z,90.30
2019-03-11T11:37:51.114Z,90.50
2019-03-11T11:40:29.734Z,90.30
2019-03-11T11:42:58.542Z,90.30
2019-03-11T11:45:28.209Z,90.40
2019-03-11T11:47:57.088Z,90.30
2019-03-11T11:50:26.181Z,90.30
2019-03-11T11:52:54.860Z,90.30
2019-03-11T11:55:24.166Z,90.50
2019-03-11T11:57:52.865Z,90.20
2019-03-11T12:00:25.260Z,90.40
2019-03-11T12:02:53.863Z,90.80
2019-03-11T12:05:22.343Z,90.50
2019-03-11T12:07:51.125Z,89.90
2019-03-11T12:10:21.688Z,90.70
2019-03-11T12:12:50.403Z,90.80
2019-03-11T12:15:19.243Z,90.80
2019-03-11T12:17:47.820Z,90.60
2019-03-11T12:20:19.335Z,90.20
2019-03-11T12:22:47.917Z,90.20
2019-03-11T12:25:16.778Z,90.10
2019-03-11T12:27:53.796Z,88.50
2019-03-11T12:30:45.469Z,90.10
2019-03-11T12:33:13.906Z,89.10
2019-03-11T12:35:42.325Z,90.10
2019-03-11T12:38:10.761Z,89.40
2019-03-11T12:40:39.264Z,89.80
2019-03-11T12:43:07.705Z,89.70
2019-03-11T12:45:36.129Z,89.50
2019-03-11T12:48:04.623Z,89.10
2019-03-11T12:50:33.885Z,87.50
2019-03-11T12:53:02.621Z,87.40
2019-03-11T12:55:31.303Z,87.20
2019-03-11T12:57:59.739Z,85.40
2019-03-11T13:00:28.157Z,87.30
2019-03-11T13:03:01.284Z,87.60
2019-03-11T13:05:32.736Z,86.90
2019-03-11T13:08:01.238Z,86.30
2019-03-11T13:10:32.969Z,87.00
2019-03-11T13:13:01.447Z,85.50
2019-03-11T13:15:29.930Z,83.80
2019-03-11T13:18:17.722Z,79.90
2019-03-11T13:20:46.145Z,82.60
2019-03-11T13:23:14.605Z,80.60
2019-03-11T13:25:43.092Z,80.10
2019-03-11T13:28:11.527Z,77.70
2019-03-11T13:30:40.274Z,75.70
2019-03-11T13:33:08.700Z,74.10
2019-03-11T13:35:37.128Z,74.20
2019-03-11T13:38:05.584Z,73.60
2019-03-11T13:40:34.016Z,69.80
2019-03-11T13:43:02.445Z,68.00
2019-03-11T13:45:31.193Z,69.00
2019-03-11T13:47:59.621Z,68.80
2019-03-11T13:50:28.053Z,70.20
2019-03-11T13:52:56.484Z,70.20
2019-03-11T13:55:24.984Z,71.10
2019-03-11T13:57:53.619Z,69.90
2019-03-11T14:00:22.319Z,65.10
2019-03-11T14:02:50.746Z,65.20
2019-03-11T14:05:19.251Z,64.40
2019-03-11T14:07:58.682Z,65.30
2019-03-11T14:16:07.254Z,65.30
2019-03-11T14:18:36.034Z,63.80
2019-03-11T14:21:04.469Z,62.50
2019-03-11T14:23:33.221Z,62.30
2019-03-11T14:26:01.724Z,64.10
2019-03-11T14:28:30.222Z,62.20
2019-03-11T14:30:58.685Z,64.00
2019-03-11T14:33:27.139Z,62.80
2019-03-11T14:35:55.889Z,62.50
2019-03-11T14:38:24.321Z,59.90
2019-03-11T14:40:52.761Z,58.60
2019-03-11T14:43:21.185Z,60.80
2019-03-11T14:45:49.623Z,59.60
2019-03-11T14:48:18.049Z,58.20
2019-03-11T14:50:46.490Z,57.70
2019-03-11T14:53:14.913Z,61.60
2019-03-11T14:55:43.353Z,60.30
2019-03-11T14:58:11.790Z,59.50
2019-03-11T15:00:40.221Z,59.90
2019-03-11T15:03:08.994Z,61.60
2019-03-11T15:05:37.778Z,59.90
2019-03-11T15:08:06.469Z,61.00
2019-03-11T15:10:34.976Z,60.20
2019-03-11T15:13:03.472Z,57.50
2019-03-11T15:15:31.915Z,59.50
2019-03-11T15:18:00.329Z,58.90
2019-03-11T15:20:28.789Z,59.10
2019-03-11T15:23:05.822Z,61.10
2019-03-11T15:25:27.542Z,61.50
2019-03-11T15:27:56.274Z,58.50
2019-03-11T15:30:25.551Z,59.60
2019-03-11T15:32:54.059Z,59.30
2019-03-11T15:35:22.484Z,60.30
2019-03-11T15:37:51.226Z,61.30
2019-03-11T15:40:19.825Z,59.20
2019-03-11T15:42:48.252Z,58.20
2019-03-11T15:45:18.078Z,59.00
2019-03-11T15:47:46.844Z,59.30
2019-03-11T15:50:21.089Z,58.30
2019-03-11T15:52:49.813Z,59.60
2019-03-11T15:55:18.337Z,58.90
2019-03-11T15:57:46.774Z,62.00
2019-03-11T16:00:18.232Z,68.90
2019-03-11T16:02:46.744Z,72.10
2019-03-11T16:05:16.520Z,73.90
2019-03-11T16:07:45.017Z,76.30
2019-03-11T16:10:17.173Z,76.50
2019-03-11T16:12:45.082Z,78.00
2019-03-11T16:15:15.040Z,78.50
2019-03-11T16:17:43.497Z,79.40
2019-03-11T16:20:15.293Z,80.20
2019-03-11T16:22:42.946Z,80.20
2019-03-11T16:25:11.921Z,80.10
2019-03-11T16:27:40.349Z,80.30
2019-03-11T16:30:11.861Z,80.50
2019-03-11T16:32:57.153Z,80.30
2019-03-11T16:35:10.861Z,79.90
2019-03-11T16:37:39.292Z,79.20
2019-03-11T16:40:10.747Z,78.60
2019-03-11T16:42:39.173Z,77.80
2019-03-11T16:45:10.217Z,78.30
2019-03-11T16:47:38.641Z,78.90
2019-03-11T16:50:17.932Z,78.90
2019-03-11T16:52:46.369Z,79.60
2019-03-11T16:55:18.664Z,80.00
2019-03-11T16:57:47.090Z,80.30
2019-03-11T17:00:18.703Z,80.60
2019-03-11T17:02:46.416Z,81.50
2019-03-11T17:05:14.923Z,82.00
2019-03-11T17:07:43.350Z,82.50
2019-03-11T17:10:14.422Z,82.20
2019-03-11T17:12:42.844Z,82.20
2019-03-11T17:15:11.901Z,81.30
2019-03-11T17:17:40.333Z,80.90
2019-03-11T17:20:19.689Z,80.50
2019-03-11T17:22:48.282Z,77.60
2019-03-11T17:25:16.793Z,77.60
2019-03-11T17:27:45.214Z,78.40
2019-03-11T17:30:21.987Z,79.10
2019-03-11T17:32:50.582Z,78.30
2019-03-11T17:35:19.110Z,78.60
2019-03-11T17:37:47.537Z,78.40
2019-03-11T17:40:23.152Z,76.80
2019-03-11T17:42:51.788Z,75.10
2019-03-11T17:45:20.420Z,73.10
2019-03-11T17:47:48.984Z,72.50
2019-03-11T17:50:42.390Z,73.60
2019-03-11T17:53:19.583Z,74.50
2019-03-11T17:55:40.978Z,73.80
2019-03-11T17:58:09.475Z,73.90
2019-03-11T18:00:54.334Z,75.00
2019-03-11T18:03:13.262Z,75.70
2019-03-11T18:05:41.768Z,76.40
2019-03-11T18:08:10.198Z,76.80
2019-03-11T18:10:38.733Z,76.70
2019-03-11T18:13:07.494Z,76.90
2019-03-11T18:15:35.958Z,76.70
2019-03-11T18:18:04.669Z,77.10
2019-03-11T18:20:33.130Z,76.90
2019-03-11T18:23:01.557Z,76.40
2019-03-11T18:25:29.993Z,77.20
2019-03-11T18:27:58.794Z,77.00
2019-03-11T18:30:28.612Z,76.80
2019-03-11T18:32:57.509Z,76.90
2019-03-11T18:35:25.998Z,76.20
2019-03-11T18:38:03.237Z,76.50
2019-03-11T18:40:24.909Z,76.60
2019-03-11T18:42:53.411Z,76.40
2019-03-11T18:45:21.850Z,77.40
2019-03-11T18:47:50.299Z,77.60
2019-03-11T18:50:23.532Z,79.50
2019-03-11T18:52:52.334Z,82.70
2019-03-11T18:55:20.857Z,84.80
2019-03-11T18:57:49.492Z,86.20
2019-03-11T19:00:22.089Z,87.20
2019-03-11T19:02:50.673Z,87.00
2019-03-11T19:05:20.885Z,88.20
2019-03-11T19:07:49.420Z,88.30
2019-03-11T19:10:18.387Z,87.70
2019-03-11T19:12:46.897Z,86.80
2019-03-11T19:15:18.179Z,85.40
2019-03-11T19:17:47.102Z,85.80
2019-03-11T19:20:20.185Z,84.90
2019-03-11T19:22:48.886Z,84.60
2019-03-11T19:25:17.863Z,83.40
2019-03-11T19:27:46.788Z,82.70
2019-03-11T19:30:20.219Z,83.30
2019-03-11T19:32:48.921Z,82.30
2019-03-11T19:35:18.362Z,81.60
2019-03-11T19:37:46.986Z,80.90
2019-03-11T19:40:18.098Z,80.70
2019-03-11T19:42:46.654Z,79.30
2019-03-11T19:45:16.634Z,79.10
2019-03-11T19:47:45.489Z,78.30
2019-03-11T19:50:16.102Z,78.20
2019-03-11T19:53:03.932Z,78.70
2019-03-11T19:55:32.488Z,77.90
2019-03-11T19:58:00.984Z,77.60
2019-03-11T20:00:29.527Z,77.00
2019-03-11T20:02:58.026Z,76.90
2019-03-11T20:05:28.092Z,77.10
2019-03-11T20:07:56.950Z,76.50
2019-03-11T20:10:25.761Z,76.30
2019-03-11T20:12:54.350Z,76.00
2019-03-11T20:15:22.808Z,76.10
2019-03-11T20:17:51.328Z,75.00
2019-03-11T20:20:20.703Z,75.20
2019-03-11T20:22:50.517Z,74.50
2019-03-11T20:25:24.776Z,74.90
2019-03-11T20:27:53.250Z,75.00
2019-03-11T20:30:22.996Z,74.80
2019-03-11T20:32:51.810Z,75.00
2019-03-11T20:35:20.759Z,74.50
2019-03-11T20:37:49.604Z,75.10
2019-03-11T20:40:18.108Z,75.20
2019-03-11T20:42:46.745Z,74.90
2019-03-11T20:45:16.705Z,74.80
2019-03-11T20:47:45.169Z,74.30
2019-03-11T20:50:17.486Z,73.80
2019-03-11T20:52:46.242Z,74.50
2019-03-11T20:55:18.884Z,73.80
2019-03-11T20:57:47.923Z,73.60
2019-03-11T21:00:20.821Z,73.40
2019-03-11T21:02:49.448Z,72.60
2019-03-11T21:05:29.885Z,73.10
2019-03-11T21:07:58.344Z,72.60
2019-03-11T21:10:27.092Z,72.30
2019-03-11T21:12:55.610Z,71.80
2019-03-11T21:15:24.124Z,71.90
2019-03-11T21:17:52.637Z,72.30
2019-03-11T21:20:21.153Z,71.80
2019-03-11T21:22:49.742Z,71.60
2019-03-11T21:25:22.264Z,72.20
2019-03-11T21:27:50.904Z,72.50
2019-03-11T21:30:22.197Z,72.30
2019-03-11T21:32:51.041Z,72.10
2019-03-11T21:35:19.715Z,72.30
2019-03-11T21:37:48.368Z,71.50
2019-03-11T21:40:18.634Z,71.30
2019-03-11T21:42:47.196Z,71.10
2019-03-11T21:45:16.805Z,71.10
2019-03-11T21:47:45.425Z,71.30
2019-03-11T21:50:19.889Z,71.10
2019-03-11T21:52:48.519Z,70.20
2019-03-11T21:55:17.383Z,70.00
2019-03-11T21:57:46.037Z,70.40
2019-03-11T22:00:28.532Z,70.50
2019-03-11T22:02:48.436Z,69.50
2019-03-11T22:05:16.862Z,69.80
2019-03-11T22:07:45.738Z,69.80
2019-03-11T22:10:16.212Z,70.30
2019-03-11T22:12:44.656Z,69.80
2019-03-11T22:15:18.321Z,69.20
2019-03-11T22:17:46.828Z,69.80
2019-03-11T22:20:16.305Z,69.90
2019-03-11T22:22:44.881Z,69.70
2019-03-11T22:25:17.823Z,69.60
2019-03-11T22:27:46.499Z,70.30
2019-03-11T22:30:42.723Z,69.70
2019-03-11T22:33:11.484Z,69.20
2019-03-11T22:35:39.994Z,69.60
2019-03-11T22:38:08.566Z,69.40
2019-03-11T22:40:37.257Z,68.80
2019-03-11T22:43:05.706Z,68.70
2019-03-11T22:45:34.129Z,68.40
2019-03-11T22:48:02.641Z,68.70
2019-03-11T22:50:31.401Z,67.80
2019-03-11T22:52:59.884Z,67.60
2019-03-11T22:55:28.426Z,67.00
2019-03-11T22:57:56.867Z,68.50
2019-03-11T23:01:00.454Z,66.60
2019-03-11T23:03:29.206Z,66.30
2019-03-11T23:05:58.712Z,67.10
2019-03-11T23:08:27.249Z,67.10
2019-03-11T23:10:55.741Z,66.90
2019-03-11T23:13:24.207Z,66.60
2019-03-11T23:15:53.082Z,66.80
2019-03-11T23:18:21.778Z,66.00
2019-03-11T23:20:50.352Z,66.60
2019-03-11T23:23:18.922Z,66.90
2019-03-11T23:25:47.641Z,66.50
2019-03-11T23:28:16.096Z,67.10
2019-03-11T23:30:44.854Z,66.70
2019-03-11T23:33:13.293Z,66.20
2019-03-11T23:35:41.722Z,66.50
2019-03-11T23:38:10.507Z,67.50
2019-03-11T23:40:38.935Z,68.00
2019-03-11T23:43:07.726Z,67.50
2019-03-11T23:45:36.205Z,66.90
2019-03-11T23:48:04.702Z,65.90
2019-03-11T23:50:33.636Z,65.50
2019-03-11T23:53:02.391Z,66.50
2019-03-11T23:55:30.826Z,66.50
2019-03-11T23:57:59.258Z,66.30
